sensor_id;sensor_type;location;lat;lon;timestamp;temperature;humidity
79244;SHT31;68672;42.676;23.356;2023-04-15T00:00:09;9.89;59.70
79244;SHT31;68672;42.676;23.356;2023-04-15T00:02:36;9.72;58.60
79244;SHT31;68672;42.676;23.356;2023-04-15T00:05:02;9.63;59.08
79244;SHT31;68672;42.676;23.356;2023-04-15T00:07:27;9.59;59.67
79244;SHT31;68672;42.676;23.356;2023-04-15T00:09:54;9.59;61.50
79244;SHT31;68672;42.676;23.356;2023-04-15T00:12:22;9.59;61.18
79244;SHT31;68672;42.676;23.356;2023-04-15T00:14:47;9.49;59.80
79244;SHT31;68672;42.676;23.356;2023-04-15T00:17:14;9.51;59.56
79244;SHT31;68672;42.676;23.356;2023-04-15T00:19:40;9.54;60.22
79244;SHT31;68672;42.676;23.356;2023-04-15T00:22:05;9.59;59.99
79244;SHT31;68672;42.676;23.356;2023-04-15T00:24:31;9.66;59.97
79244;SHT31;68672;42.676;23.356;2023-04-15T00:26:57;9.72;60.76
79244;SHT31;68672;42.676;23.356;2023-04-15T00:29:23;9.72;59.49
79244;SHT31;68672;42.676;23.356;2023-04-15T00:31:48;9.74;59.00
79244;SHT31;68672;42.676;23.356;2023-04-15T00:34:14;9.79;60.17
79244;SHT31;68672;42.676;23.356;2023-04-15T00:36:42;9.85;60.19
79244;SHT31;68672;42.676;23.356;2023-04-15T00:39:07;9.86;60.56
79244;SHT31;68672;42.676;23.356;2023-04-15T00:41:32;9.87;60.19
79244;SHT31;68672;42.676;23.356;2023-04-15T00:44:00;9.93;60.25
79244;SHT31;68672;42.676;23.356;2023-04-15T00:46:28;10.00;60.89
79244;SHT31;68672;42.676;23.356;2023-04-15T00:48:55;10.06;62.17
79244;SHT31;68672;42.676;23.356;2023-04-15T00:51:20;10.04;61.74
79244;SHT31;68672;42.676;23.356;2023-04-15T00:53:46;10.07;61.15
79244;SHT31;68672;42.676;23.356;2023-04-15T00:56:12;10.14;60.95
79244;SHT31;68672;42.676;23.356;2023-04-15T00:58:38;10.14;61.39
79244;SHT31;68672;42.676;23.356;2023-04-15T01:01:05;10.12;61.23
79244;SHT31;68672;42.676;23.356;2023-04-15T01:03:31;10.07;61.05
79244;SHT31;68672;42.676;23.356;2023-04-15T01:05:56;10.02;61.15
79244;SHT31;68672;42.676;23.356;2023-04-15T01:08:29;10.00;61.55
79244;SHT31;68672;42.676;23.356;2023-04-15T01:10:58;10.02;62.04
79244;SHT31;68672;42.676;23.356;2023-04-15T01:13:28;9.90;62.36
79244;SHT31;68672;42.676;23.356;2023-04-15T01:15:55;9.90;62.47
79244;SHT31;68672;42.676;23.356;2023-04-15T01:18:22;9.79;62.50
79244;SHT31;68672;42.676;23.356;2023-04-15T01:20:48;9.75;62.88
79244;SHT31;68672;42.676;23.356;2023-04-15T01:23:14;9.74;62.46
79244;SHT31;68672;42.676;23.356;2023-04-15T01:25:42;9.72;62.50
79244;SHT31;68672;42.676;23.356;2023-04-15T01:28:08;9.74;62.73
79244;SHT31;68672;42.676;23.356;2023-04-15T01:30:34;9.75;62.78
79244;SHT31;68672;42.676;23.356;2023-04-15T01:32:59;9.76;62.62
79244;SHT31;68672;42.676;23.356;2023-04-15T01:35:25;9.75;62.54
79244;SHT31;68672;42.676;23.356;2023-04-15T01:37:52;9.65;62.79
79244;SHT31;68672;42.676;23.356;2023-04-15T01:40:18;9.56;62.85
79244;SHT31;68672;42.676;23.356;2023-04-15T01:42:47;9.52;62.99
79244;SHT31;68672;42.676;23.356;2023-04-15T01:45:13;9.48;63.07
79244;SHT31;68672;42.676;23.356;2023-04-15T01:47:38;9.49;63.34
79244;SHT31;68672;42.676;23.356;2023-04-15T01:50:04;9.42;63.26
79244;SHT31;68672;42.676;23.356;2023-04-15T01:52:31;9.44;63.15
79244;SHT31;68672;42.676;23.356;2023-04-15T01:54:56;9.41;64.09
79244;SHT31;68672;42.676;23.356;2023-04-15T01:57:21;9.38;64.11
79244;SHT31;68672;42.676;23.356;2023-04-15T01:59:47;9.36;63.67
79244;SHT31;68672;42.676;23.356;2023-04-15T02:02:12;9.35;63.86
79244;SHT31;68672;42.676;23.356;2023-04-15T02:04:38;9.36;63.73
79244;SHT31;68672;42.676;23.356;2023-04-15T02:07:03;9.42;63.16
79244;SHT31;68672;42.676;23.356;2023-04-15T02:09:28;9.41;63.37
79244;SHT31;68672;42.676;23.356;2023-04-15T02:11:54;9.39;63.48
79244;SHT31;68672;42.676;23.356;2023-04-15T02:14:20;9.42;63.41
79244;SHT31;68672;42.676;23.356;2023-04-15T02:16:45;9.44;63.39
79244;SHT31;68672;42.676;23.356;2023-04-15T02:19:10;9.42;63.53
79244;SHT31;68672;42.676;23.356;2023-04-15T02:21:37;9.39;63.60
79244;SHT31;68672;42.676;23.356;2023-04-15T02:24:02;9.38;64.19
79244;SHT31;68672;42.676;23.356;2023-04-15T02:26:31;9.36;64.44
79244;SHT31;68672;42.676;23.356;2023-04-15T02:28:57;9.35;64.77
79244;SHT31;68672;42.676;23.356;2023-04-15T02:31:23;9.34;64.68
79244;SHT31;68672;42.676;23.356;2023-04-15T02:33:49;9.34;63.52
79244;SHT31;68672;42.676;23.356;2023-04-15T02:36:15;9.27;64.55
79244;SHT31;68672;42.676;23.356;2023-04-15T02:38:43;9.23;64.73
79244;SHT31;68672;42.676;23.356;2023-04-15T02:41:09;9.17;64.89
79244;SHT31;68672;42.676;23.356;2023-04-15T02:43:34;9.05;65.15
79244;SHT31;68672;42.676;23.356;2023-04-15T02:46:00;8.93;64.88
79244;SHT31;68672;42.676;23.356;2023-04-15T02:48:28;8.87;64.65
79244;SHT31;68672;42.676;23.356;2023-04-15T02:50:53;8.86;65.51
79244;SHT31;68672;42.676;23.356;2023-04-15T02:53:34;8.75;65.33
79244;SHT31;68672;42.676;23.356;2023-04-15T02:56:00;8.67;65.30
79244;SHT31;68672;42.676;23.356;2023-04-15T02:58:25;8.63;65.41
79244;SHT31;68672;42.676;23.356;2023-04-15T03:00:51;8.59;65.42
79244;SHT31;68672;42.676;23.356;2023-04-15T03:03:16;8.38;65.55
79244;SHT31;68672;42.676;23.356;2023-04-15T03:05:43;8.32;64.59
79244;SHT31;68672;42.676;23.356;2023-04-15T03:08:11;8.21;62.90
79244;SHT31;68672;42.676;23.356;2023-04-15T03:10:37;8.15;62.68
79244;SHT31;68672;42.676;23.356;2023-04-15T03:13:05;8.14;62.44
79244;SHT31;68672;42.676;23.356;2023-04-15T03:15:31;8.08;62.26
79244;SHT31;68672;42.676;23.356;2023-04-15T03:17:57;7.97;62.68
79244;SHT31;68672;42.676;23.356;2023-04-15T03:20:22;7.84;63.34
79244;SHT31;68672;42.676;23.356;2023-04-15T03:22:48;7.80;63.06
79244;SHT31;68672;42.676;23.356;2023-04-15T03:25:16;7.73;61.87
79244;SHT31;68672;42.676;23.356;2023-04-15T03:27:41;7.70;61.95
79244;SHT31;68672;42.676;23.356;2023-04-15T03:30:07;7.69;61.52
79244;SHT31;68672;42.676;23.356;2023-04-15T03:32:33;7.60;61.81
79244;SHT31;68672;42.676;23.356;2023-04-15T03:35:01;7.56;62.01
79244;SHT31;68672;42.676;23.356;2023-04-15T03:37:26;7.59;62.81
79244;SHT31;68672;42.676;23.356;2023-04-15T03:39:52;7.42;62.73
79244;SHT31;68672;42.676;23.356;2023-04-15T03:42:17;7.35;63.18
79244;SHT31;68672;42.676;23.356;2023-04-15T03:44:43;7.33;64.12
79244;SHT31;68672;42.676;23.356;2023-04-15T03:47:08;7.25;64.14
79244;SHT31;68672;42.676;23.356;2023-04-15T03:49:34;7.23;64.65
79244;SHT31;68672;42.676;23.356;2023-04-15T03:52:00;7.22;64.74
79244;SHT31;68672;42.676;23.356;2023-04-15T03:54:25;7.18;64.65
79244;SHT31;68672;42.676;23.356;2023-04-15T03:56:50;7.12;65.29
79244;SHT31;68672;42.676;23.356;2023-04-15T03:59:16;7.05;65.34
79244;SHT31;68672;42.676;23.356;2023-04-15T04:01:44;7.14;65.67
79244;SHT31;68672;42.676;23.356;2023-04-15T04:04:10;7.04;65.84
79244;SHT31;68672;42.676;23.356;2023-04-15T04:06:35;7.08;65.52
79244;SHT31;68672;42.676;23.356;2023-04-15T04:09:01;6.98;65.85
79244;SHT31;68672;42.676;23.356;2023-04-15T04:11:26;6.98;65.50
79244;SHT31;68672;42.676;23.356;2023-04-15T04:13:55;6.98;65.63
79244;SHT31;68672;42.676;23.356;2023-04-15T04:16:20;6.99;65.96
79244;SHT31;68672;42.676;23.356;2023-04-15T04:18:46;7.05;65.97
79244;SHT31;68672;42.676;23.356;2023-04-15T04:21:14;7.06;65.32
79244;SHT31;68672;42.676;23.356;2023-04-15T04:23:39;7.15;65.36
79244;SHT31;68672;42.676;23.356;2023-04-15T04:26:05;7.19;65.45
79244;SHT31;68672;42.676;23.356;2023-04-15T04:28:33;7.26;65.74
79244;SHT31;68672;42.676;23.356;2023-04-15T04:31:03;7.30;65.93
79244;SHT31;68672;42.676;23.356;2023-04-15T04:33:28;7.36;65.68
79244;SHT31;68672;42.676;23.356;2023-04-15T04:35:54;7.47;65.54
79244;SHT31;68672;42.676;23.356;2023-04-15T04:38:25;7.60;65.00
79244;SHT31;68672;42.676;23.356;2023-04-15T04:40:50;7.64;64.97
79244;SHT31;68672;42.676;23.356;2023-04-15T04:43:16;7.70;65.22
79244;SHT31;68672;42.676;23.356;2023-04-15T04:45:41;7.78;65.03
79244;SHT31;68672;42.676;23.356;2023-04-15T04:48:07;7.88;65.03
79244;SHT31;68672;42.676;23.356;2023-04-15T04:50:34;8.01;65.05
79244;SHT31;68672;42.676;23.356;2023-04-15T04:53:00;8.15;64.74
79244;SHT31;68672;42.676;23.356;2023-04-15T04:55:26;8.22;64.46
79244;SHT31;68672;42.676;23.356;2023-04-15T04:57:52;8.35;64.22
79244;SHT31;68672;42.676;23.356;2023-04-15T05:00:17;8.36;64.06
79244;SHT31;68672;42.676;23.356;2023-04-15T05:02:43;8.48;64.15
79244;SHT31;68672;42.676;23.356;2023-04-15T05:05:09;8.55;63.91
79244;SHT31;68672;42.676;23.356;2023-04-15T05:07:36;8.60;63.62
79244;SHT31;68672;42.676;23.356;2023-04-15T05:10:02;8.70;63.37
79244;SHT31;68672;42.676;23.356;2023-04-15T05:12:27;8.81;63.27
79244;SHT31;68672;42.676;23.356;2023-04-15T05:14:53;8.91;63.18
79244;SHT31;68672;42.676;23.356;2023-04-15T05:17:18;8.96;62.97
79244;SHT31;68672;42.676;23.356;2023-04-15T05:19:44;9.04;61.82
79244;SHT31;68672;42.676;23.356;2023-04-15T05:22:09;9.15;61.37
79244;SHT31;68672;42.676;23.356;2023-04-15T05:24:37;9.20;61.26
79244;SHT31;68672;42.676;23.356;2023-04-15T05:27:03;9.27;60.50
79244;SHT31;68672;42.676;23.356;2023-04-15T05:29:28;9.34;60.11
79244;SHT31;68672;42.676;23.356;2023-04-15T05:31:55;9.36;59.54
79244;SHT31;68672;42.676;23.356;2023-04-15T05:34:20;9.36;59.08
79244;SHT31;68672;42.676;23.356;2023-04-15T05:36:46;9.42;59.28
79244;SHT31;68672;42.676;23.356;2023-04-15T05:39:11;9.55;58.72
79244;SHT31;68672;42.676;23.356;2023-04-15T05:41:37;9.62;58.17
79244;SHT31;68672;42.676;23.356;2023-04-15T05:44:03;9.71;58.30
79244;SHT31;68672;42.676;23.356;2023-04-15T05:46:28;9.81;58.77
79244;SHT31;68672;42.676;23.356;2023-04-15T05:48:53;9.89;59.12
79244;SHT31;68672;42.676;23.356;2023-04-15T05:51:19;9.92;59.41
79244;SHT31;68672;42.676;23.356;2023-04-15T05:53:44;9.97;59.21
79244;SHT31;68672;42.676;23.356;2023-04-15T05:56:10;10.06;58.71
79244;SHT31;68672;42.676;23.356;2023-04-15T05:58:36;10.12;58.74
79244;SHT31;68672;42.676;23.356;2023-04-15T06:01:02;10.16;58.70
79244;SHT31;68672;42.676;23.356;2023-04-15T06:18:30;11.50;53.25
79244;SHT31;68672;42.676;23.356;2023-04-15T06:20:56;11.53;52.66
79244;SHT31;68672;42.676;23.356;2023-04-15T06:23:21;11.53;53.06
79244;SHT31;68672;42.676;23.356;2023-04-15T06:25:47;11.53;53.33
79244;SHT31;68672;42.676;23.356;2023-04-15T06:28:12;11.59;52.82
79244;SHT31;68672;42.676;23.356;2023-04-15T06:30:38;11.64;53.02
79244;SHT31;68672;42.676;23.356;2023-04-15T06:33:04;11.69;52.90
79244;SHT31;68672;42.676;23.356;2023-04-15T06:35:30;11.69;53.27
79244;SHT31;68672;42.676;23.356;2023-04-15T06:37:56;11.74;53.47
79244;SHT31;68672;42.676;23.356;2023-04-15T06:40:21;11.77;52.92
79244;SHT31;68672;42.676;23.356;2023-04-15T06:42:47;11.83;52.46
79244;SHT31;68672;42.676;23.356;2023-04-15T06:45:15;11.83;52.65
79244;SHT31;68672;42.676;23.356;2023-04-15T06:47:41;11.91;52.34
79244;SHT31;68672;42.676;23.356;2023-04-15T06:50:08;11.95;52.24
79244;SHT31;68672;42.676;23.356;2023-04-15T06:52:34;12.02;51.89
79244;SHT31;68672;42.676;23.356;2023-04-15T06:55:00;12.12;51.58
79244;SHT31;68672;42.676;23.356;2023-04-15T06:57:26;12.17;52.21
79244;SHT31;68672;42.676;23.356;2023-04-15T06:59:53;12.22;51.80
79244;SHT31;68672;42.676;23.356;2023-04-15T07:02:18;12.26;51.67
79244;SHT31;68672;42.676;23.356;2023-04-15T07:04:44;12.38;50.79
79244;SHT31;68672;42.676;23.356;2023-04-15T07:07:10;12.42;50.30
79244;SHT31;68672;42.676;23.356;2023-04-15T07:09:36;12.46;50.14
79244;SHT31;68672;42.676;23.356;2023-04-15T07:12:07;12.52;49.98
79244;SHT31;68672;42.676;23.356;2023-04-15T07:14:33;12.60;50.35
79244;SHT31;68672;42.676;23.356;2023-04-15T07:16:58;12.70;49.70
79244;SHT31;68672;42.676;23.356;2023-04-15T07:19:23;12.76;49.09
79244;SHT31;68672;42.676;23.356;2023-04-15T07:21:49;12.70;49.21
79244;SHT31;68672;42.676;23.356;2023-04-15T07:24:14;12.69;50.23
79244;SHT31;68672;42.676;23.356;2023-04-15T07:26:43;12.77;50.75
79244;SHT31;68672;42.676;23.356;2023-04-15T07:29:08;12.86;49.99
79244;SHT31;68672;42.676;23.356;2023-04-15T07:31:34;12.97;49.29
79244;SHT31;68672;42.676;23.356;2023-04-15T07:34:01;13.07;49.24
79244;SHT31;68672;42.676;23.356;2023-04-15T07:36:27;13.25;48.25
79244;SHT31;68672;42.676;23.356;2023-04-15T07:38:53;13.30;48.01
79244;SHT31;68672;42.676;23.356;2023-04-15T07:41:20;13.34;47.97
79244;SHT31;68672;42.676;23.356;2023-04-15T07:43:46;13.42;48.34
79244;SHT31;68672;42.676;23.356;2023-04-15T07:46:12;13.50;48.16
79244;SHT31;68672;42.676;23.356;2023-04-15T07:48:38;13.63;47.76
79244;SHT31;68672;42.676;23.356;2023-04-15T07:51:03;13.69;47.53
79244;SHT31;68672;42.676;23.356;2023-04-15T07:53:29;13.66;46.50
79244;SHT31;68672;42.676;23.356;2023-04-15T07:55:54;13.62;47.91
79244;SHT31;68672;42.676;23.356;2023-04-15T07:58:20;13.62;47.83
79244;SHT31;68672;42.676;23.356;2023-04-15T08:00:48;13.69;48.03
79244;SHT31;68672;42.676;23.356;2023-04-15T08:03:15;13.79;47.96
79244;SHT31;68672;42.676;23.356;2023-04-15T08:05:43;13.90;47.92
79244;SHT31;68672;42.676;23.356;2023-04-15T08:08:12;14.02;47.84
79244;SHT31;68672;42.676;23.356;2023-04-15T08:10:37;14.19;47.75
79244;SHT31;68672;42.676;23.356;2023-04-15T08:13:03;14.33;47.45
79244;SHT31;68672;42.676;23.356;2023-04-15T08:15:28;14.47;46.62
79244;SHT31;68672;42.676;23.356;2023-04-15T08:17:54;14.58;44.50
79244;SHT31;68672;42.676;23.356;2023-04-15T08:20:19;14.61;45.22
79244;SHT31;68672;42.676;23.356;2023-04-15T08:22:44;14.68;45.10
79244;SHT31;68672;42.676;23.356;2023-04-15T08:25:15;14.80;44.54
79244;SHT31;68672;42.676;23.356;2023-04-15T08:27:41;14.93;43.42
79244;SHT31;68672;42.676;23.356;2023-04-15T08:30:07;15.09;43.03
79244;SHT31;68672;42.676;23.356;2023-04-15T08:32:33;15.25;43.38
79244;SHT31;68672;42.676;23.356;2023-04-15T08:34:58;15.39;43.42
79244;SHT31;68672;42.676;23.356;2023-04-15T08:37:24;15.49;42.41
79244;SHT31;68672;42.676;23.356;2023-04-15T08:39:51;15.69;42.89
79244;SHT31;68672;42.676;23.356;2023-04-15T08:42:18;15.79;43.37
79244;SHT31;68672;42.676;23.356;2023-04-15T08:44:50;15.98;42.53
79244;SHT31;68672;42.676;23.356;2023-04-15T08:47:19;16.05;41.18
79244;SHT31;68672;42.676;23.356;2023-04-15T08:49:45;16.17;41.85
79244;SHT31;68672;42.676;23.356;2023-04-15T08:52:20;16.29;42.16
79244;SHT31;68672;42.676;23.356;2023-04-15T08:54:47;16.42;41.80
79244;SHT31;68672;42.676;23.356;2023-04-15T08:57:13;16.62;41.54
79244;SHT31;68672;42.676;23.356;2023-04-15T08:59:40;16.81;41.11
79244;SHT31;68672;42.676;23.356;2023-04-15T09:02:07;17.00;40.47
79244;SHT31;68672;42.676;23.356;2023-04-15T09:04:33;17.21;40.10
79244;SHT31;68672;42.676;23.356;2023-04-15T09:06:58;17.45;39.79
79244;SHT31;68672;42.676;23.356;2023-04-15T09:09:24;17.67;37.12
79244;SHT31;68672;42.676;23.356;2023-04-15T09:11:52;17.88;36.92
79244;SHT31;68672;42.676;23.356;2023-04-15T09:14:17;18.06;35.47
79244;SHT31;68672;42.676;23.356;2023-04-15T09:17:00;18.27;35.01
79244;SHT31;68672;42.676;23.356;2023-04-15T09:19:26;18.37;35.83
79244;SHT31;68672;42.676;23.356;2023-04-15T09:21:56;18.61;33.47
79244;SHT31;68672;42.676;23.356;2023-04-15T09:24:22;18.81;32.70
79244;SHT31;68672;42.676;23.356;2023-04-15T09:26:51;18.97;33.10
79244;SHT31;68672;42.676;23.356;2023-04-15T09:29:19;19.08;32.93
79244;SHT31;68672;42.676;23.356;2023-04-15T09:31:45;19.26;32.29
79244;SHT31;68672;42.676;23.356;2023-04-15T09:34:11;19.33;31.16
79244;SHT31;68672;42.676;23.356;2023-04-15T09:36:55;19.46;32.07
79244;SHT31;68672;42.676;23.356;2023-04-15T09:39:21;19.62;32.07
79244;SHT31;68672;42.676;23.356;2023-04-15T09:41:51;19.74;32.06
79244;SHT31;68672;42.676;23.356;2023-04-15T09:44:28;19.81;31.40
79244;SHT31;68672;42.676;23.356;2023-04-15T09:46:53;19.93;30.77
79244;SHT31;68672;42.676;23.356;2023-04-15T09:49:21;19.91;30.90
79244;SHT31;68672;42.676;23.356;2023-04-15T09:51:47;19.90;31.07
79244;SHT31;68672;42.676;23.356;2023-04-15T09:54:18;19.95;30.61
79244;SHT31;68672;42.676;23.356;2023-04-15T09:56:44;20.10;29.38
79244;SHT31;68672;42.676;23.356;2023-04-15T09:59:10;20.05;29.54
79244;SHT31;68672;42.676;23.356;2023-04-15T10:01:35;20.08;29.32
79244;SHT31;68672;42.676;23.356;2023-04-15T10:04:05;19.98;29.21
79244;SHT31;68672;42.676;23.356;2023-04-15T10:06:32;20.03;29.42
79244;SHT31;68672;42.676;23.356;2023-04-15T10:08:58;19.98;29.42
79244;SHT31;68672;42.676;23.356;2023-04-15T10:11:27;20.00;29.65
79244;SHT31;68672;42.676;23.356;2023-04-15T10:13:53;20.03;29.91
79244;SHT31;68672;42.676;23.356;2023-04-15T10:16:19;20.15;30.31
79244;SHT31;68672;42.676;23.356;2023-04-15T10:18:47;20.39;28.89
79244;SHT31;68672;42.676;23.356;2023-04-15T10:21:16;20.65;28.81
79244;SHT31;68672;42.676;23.356;2023-04-15T10:23:44;20.86;26.36
79244;SHT31;68672;42.676;23.356;2023-04-15T10:26:11;20.90;25.37
79244;SHT31;68672;42.676;23.356;2023-04-15T10:28:41;20.99;25.62
79244;SHT31;68672;42.676;23.356;2023-04-15T10:31:07;21.11;24.94
79244;SHT31;68672;42.676;23.356;2023-04-15T10:33:33;21.16;25.21
79244;SHT31;68672;42.676;23.356;2023-04-15T10:35:59;21.20;24.79
79244;SHT31;68672;42.676;23.356;2023-04-15T10:38:37;21.27;25.31
79244;SHT31;68672;42.676;23.356;2023-04-15T10:41:20;21.37;25.13
79244;SHT31;68672;42.676;23.356;2023-04-15T10:43:53;21.43;24.73
79244;SHT31;68672;42.676;23.356;2023-04-15T10:46:40;21.54;25.15
79244;SHT31;68672;42.676;23.356;2023-04-15T10:49:16;21.57;24.31
79244;SHT31;68672;42.676;23.356;2023-04-15T10:51:52;21.48;24.78
79244;SHT31;68672;42.676;23.356;2023-04-15T10:59:28;21.48;25.13
79244;SHT31;68672;42.676;23.356;2023-04-15T11:01:55;21.71;25.71
79244;SHT31;68672;42.676;23.356;2023-04-15T11:04:56;22.95;24.96
79244;SHT31;68672;42.676;23.356;2023-04-15T11:12:39;26.70;21.30
79244;SHT31;68672;42.676;23.356;2023-04-15T11:15:31;26.77;20.96
79244;SHT31;68672;42.676;23.356;2023-04-15T11:18:13;27.17;20.65
79244;SHT31;68672;42.676;23.356;2023-04-15T11:20:41;26.47;21.25
79244;SHT31;68672;42.676;23.356;2023-04-15T11:23:07;26.53;20.92
79244;SHT31;68672;42.676;23.356;2023-04-15T11:25:35;27.37;20.67
79244;SHT31;68672;42.676;23.356;2023-04-15T11:28:04;27.95;20.24
79244;SHT31;68672;42.676;23.356;2023-04-15T11:30:31;28.34;19.58
79244;SHT31;68672;42.676;23.356;2023-04-15T11:32:59;28.26;19.20
79244;SHT31;68672;42.676;23.356;2023-04-15T11:35:25;28.37;19.07
79244;SHT31;68672;42.676;23.356;2023-04-15T11:37:51;28.23;18.97
79244;SHT31;68672;42.676;23.356;2023-04-15T11:40:21;28.02;19.29
79244;SHT31;68672;42.676;23.356;2023-04-15T11:43:12;27.93;18.49
79244;SHT31;68672;42.676;23.356;2023-04-15T11:45:56;27.67;15.33
79244;SHT31;68672;42.676;23.356;2023-04-15T11:48:27;27.28;15.28
79244;SHT31;68672;42.676;23.356;2023-04-15T11:53:48;26.46;15.87
79244;SHT31;68672;42.676;23.356;2023-04-15T11:56:22;26.16;16.15
79244;SHT31;68672;42.676;23.356;2023-04-15T11:58:51;25.53;17.02
79244;SHT31;68672;42.676;23.356;2023-04-15T12:01:33;25.16;17.74
79244;SHT31;68672;42.676;23.356;2023-04-15T12:03:59;24.69;18.39
79244;SHT31;68672;42.676;23.356;2023-04-15T12:06:31;24.24;18.34
79244;SHT31;68672;42.676;23.356;2023-04-15T12:09:16;23.60;18.65
79244;SHT31;68672;42.676;23.356;2023-04-15T12:11:46;23.25;19.27
79244;SHT31;68672;42.676;23.356;2023-04-15T12:14:18;23.41;19.64
79244;SHT31;68672;42.676;23.356;2023-04-15T12:16:45;23.62;19.00
79244;SHT31;68672;42.676;23.356;2023-04-15T12:19:35;23.58;18.67
79244;SHT31;68672;42.676;23.356;2023-04-15T12:22:08;23.56;18.61
79244;SHT31;68672;42.676;23.356;2023-04-15T12:24:35;23.41;18.83
79244;SHT31;68672;42.676;23.356;2023-04-15T12:27:03;23.52;18.67
79244;SHT31;68672;42.676;23.356;2023-04-15T12:29:29;23.69;18.92
79244;SHT31;68672;42.676;23.356;2023-04-15T12:32:04;23.97;18.92
79244;SHT31;68672;42.676;23.356;2023-04-15T12:34:37;24.06;18.70
79244;SHT31;68672;42.676;23.356;2023-04-15T12:37:04;24.37;18.81
79244;SHT31;68672;42.676;23.356;2023-04-15T12:39:34;24.55;18.61
79244;SHT31;68672;42.676;23.356;2023-04-15T12:42:00;24.25;18.87
79244;SHT31;68672;42.676;23.356;2023-04-15T12:44:26;24.22;18.92
79244;SHT31;68672;42.676;23.356;2023-04-15T12:46:52;24.06;18.85
79244;SHT31;68672;42.676;23.356;2023-04-15T12:49:21;24.17;19.30
79244;SHT31;68672;42.676;23.356;2023-04-15T12:51:53;24.24;19.38
79244;SHT31;68672;42.676;23.356;2023-04-15T12:54:19;24.21;19.59
79244;SHT31;68672;42.676;23.356;2023-04-15T12:56:45;23.97;19.90
79244;SHT31;68672;42.676;23.356;2023-04-15T12:59:12;23.80;19.45
79244;SHT31;68672;42.676;23.356;2023-04-15T13:01:38;23.63;19.38
79244;SHT31;68672;42.676;23.356;2023-04-15T13:04:03;23.67;19.50
79244;SHT31;68672;42.676;23.356;2023-04-15T13:06:29;23.58;19.75
79244;SHT31;68672;42.676;23.356;2023-04-15T13:08:58;23.46;20.06
79244;SHT31;68672;42.676;23.356;2023-04-15T13:11:23;23.43;19.71
79244;SHT31;68672;42.676;23.356;2023-04-15T13:13:49;23.31;19.88
79244;SHT31;68672;42.676;23.356;2023-04-15T13:16:16;23.55;20.01
79244;SHT31;68672;42.676;23.356;2023-04-15T13:18:41;23.90;19.81
79244;SHT31;68672;42.676;23.356;2023-04-15T13:21:11;24.41;19.39
79244;SHT31;68672;42.676;23.356;2023-04-15T13:23:36;24.90;19.30
79244;SHT31;68672;42.676;23.356;2023-04-15T13:26:03;25.24;19.08
79244;SHT31;68672;42.676;23.356;2023-04-15T13:28:31;25.56;18.10
79244;SHT31;68672;42.676;23.356;2023-04-15T13:30:57;25.78;17.97
79244;SHT31;68672;42.676;23.356;2023-04-15T13:33:22;25.87;18.05
79244;SHT31;68672;42.676;23.356;2023-04-15T13:35:48;26.45;17.58
79244;SHT31;68672;42.676;23.356;2023-04-15T13:38:13;27.10;17.17
79244;SHT31;68672;42.676;23.356;2023-04-15T13:40:38;27.90;16.76
79244;SHT31;68672;42.676;23.356;2023-04-15T13:43:04;28.24;16.37
79244;SHT31;68672;42.676;23.356;2023-04-15T13:45:30;28.82;15.78
79244;SHT31;68672;42.676;23.356;2023-04-15T13:47:55;29.36;15.66
79244;SHT31;68672;42.676;23.356;2023-04-15T13:50:22;29.26;15.47
79244;SHT31;68672;42.676;23.356;2023-04-15T13:52:47;29.02;15.62
79244;SHT31;68672;42.676;23.356;2023-04-15T13:55:12;28.47;16.12
79244;SHT31;68672;42.676;23.356;2023-04-15T13:57:38;29.26;15.47
79244;SHT31;68672;42.676;23.356;2023-04-15T14:00:04;30.02;15.24
79244;SHT31;68672;42.676;23.356;2023-04-15T14:02:30;29.80;15.12
79244;SHT31;68672;42.676;23.356;2023-04-15T14:04:55;29.93;14.95
79244;SHT31;68672;42.676;23.356;2023-04-15T14:07:21;29.67;15.20
79244;SHT31;68672;42.676;23.356;2023-04-15T14:09:47;29.23;15.50
79244;SHT31;68672;42.676;23.356;2023-04-15T14:12:12;27.69;16.64
79244;SHT31;68672;42.676;23.356;2023-04-15T14:14:39;27.20;17.11
79244;SHT31;68672;42.676;23.356;2023-04-15T14:17:04;26.40;17.59
79244;SHT31;68672;42.676;23.356;2023-04-15T14:19:30;25.87;17.89
79244;SHT31;68672;42.676;23.356;2023-04-15T14:21:56;25.46;18.18
79244;SHT31;68672;42.676;23.356;2023-04-15T14:24:25;24.90;18.63
79244;SHT31;68672;42.676;23.356;2023-04-15T14:26:50;24.59;19.19
79244;SHT31;68672;42.676;23.356;2023-04-15T14:29:16;24.40;19.31
79244;SHT31;68672;42.676;23.356;2023-04-15T14:31:41;23.86;20.00
79244;SHT31;68672;42.676;23.356;2023-04-15T14:34:09;24.07;19.77
79244;SHT31;68672;42.676;23.356;2023-04-15T14:36:34;24.47;19.49
79244;SHT31;68672;42.676;23.356;2023-04-15T14:39:00;25.05;18.99
79244;SHT31;68672;42.676;23.356;2023-04-15T14:41:25;25.56;18.61
79244;SHT31;68672;42.676;23.356;2023-04-15T14:43:51;25.46;18.74
79244;SHT31;68672;42.676;23.356;2023-04-15T14:46:16;25.51;18.57
79244;SHT31;68672;42.676;23.356;2023-04-15T14:48:42;25.13;18.98
79244;SHT31;68672;42.676;23.356;2023-04-15T14:51:07;24.65;19.07
79244;SHT31;68672;42.676;23.356;2023-04-15T14:53:36;24.20;19.40
79244;SHT31;68672;42.676;23.356;2023-04-15T14:56:01;24.01;19.87
79244;SHT31;68672;42.676;23.356;2023-04-15T14:58:26;23.87;20.02
79244;SHT31;68672;42.676;23.356;2023-04-15T15:00:52;23.67;20.47
79244;SHT31;68672;42.676;23.356;2023-04-15T15:03:17;23.42;20.78
79244;SHT31;68672;42.676;23.356;2023-04-15T15:05:44;23.08;21.06
79244;SHT31;68672;42.676;23.356;2023-04-15T15:08:11;22.78;21.83
79244;SHT31;68672;42.676;23.356;2023-04-15T15:10:38;22.43;22.67
79244;SHT31;68672;42.676;23.356;2023-04-15T15:13:05;22.33;23.23
79244;SHT31;68672;42.676;23.356;2023-04-15T15:15:31;22.50;23.19
79244;SHT31;68672;42.676;23.356;2023-04-15T15:17:59;22.64;23.15
79244;SHT31;68672;42.676;23.356;2023-04-15T15:20:26;22.73;22.92
79244;SHT31;68672;42.676;23.356;2023-04-15T15:22:51;22.90;22.95
79244;SHT31;68672;42.676;23.356;2023-04-15T15:25:17;22.98;22.76
79244;SHT31;68672;42.676;23.356;2023-04-15T15:27:42;23.00;23.08
79244;SHT31;68672;42.676;23.356;2023-04-15T15:30:08;22.98;22.45
79244;SHT31;68672;42.676;23.356;2023-04-15T15:32:34;22.81;21.57
79244;SHT31;68672;42.676;23.356;2023-04-15T15:35:00;22.56;21.88
79244;SHT31;68672;42.676;23.356;2023-04-15T15:37:29;22.32;22.20
79244;SHT31;68672;42.676;23.356;2023-04-15T15:39:55;22.06;22.47
79244;SHT31;68672;42.676;23.356;2023-04-15T15:42:21;21.89;23.06
79244;SHT31;68672;42.676;23.356;2023-04-15T15:44:47;21.62;23.46
79244;SHT31;68672;42.676;23.356;2023-04-15T15:47:22;21.23;23.63
79244;SHT31;68672;42.676;23.356;2023-04-15T15:49:48;20.85;24.22